Time;durP1;ratioP1;P1;durP2;ratioP2;P2;SDS_P1;SDS_P2;PMS_P1;PMS_P2;Temp;Humidity;BMP_temperature;BMP_pressure;BME280_temperature;BME280_humidity;BME280_pressure;Samples;Min_cycle;Max_cycle;Signal;HPM_P1;HPM_P2
2023/01/13 05:25:28;;;;;;;0.80;0.45;;;;;;;10.80;83.16;99620.34;5088946;28;20055;-70
2023/01/13 05:27:55;;;;;;;0.57;0.22;;;;;;;10.78;83.30;99614.41;5088643;28;20040;-70
2023/01/13 05:30:23;;;;;;;0.25;0.25;;;;;;;10.79;83.65;99626.69;5089023;28;20121;-70
2023/01/13 05:32:48;;;;;;;0.43;0.20;;;;;;;10.78;84.08;99638.38;5090975;28;20085;-69
2023/01/13 05:35:15;;;;;;;0.40;0.40;;;;;;;10.77;83.90;99628.72;5091821;28;20442;-70
2023/01/13 05:37:44;;;;;;;0.40;0.40;;;;;;;10.78;83.50;99619.72;5091557;28;20032;-69
2023/01/13 05:43:18;;;;;;;5.93;1.58;;;;;;;10.85;83.38;99633.94;5090581;28;20040;-71
2023/01/13 05:45:45;;;;;;;1.55;0.77;;;;;;;10.82;83.12;99634.28;5090572;28;20085;-71
2023/01/13 05:48:11;;;;;;;0.30;0.30;;;;;;;10.81;82.80;99624.66;5091178;28;20056;-70
2023/01/13 05:50:37;;;;;;;0.32;0.30;;;;;;;10.82;83.11;99616.50;5094193;28;20037;-69
2023/01/13 05:53:03;;;;;;;0.40;0.40;;;;;;;10.79;83.45;99616.88;5092849;28;20046;-69
2023/01/13 05:55:29;;;;;;;1.95;0.35;;;;;;;10.81;82.93;99619.31;5092849;28;20075;-72
2023/01/13 05:57:54;;;;;;;3.17;0.50;;;;;;;10.85;82.57;99632.09;5092874;28;20462;-72
2023/01/13 06:00:20;;;;;;;1.35;0.30;;;;;;;10.83;82.52;99626.13;5092167;28;20051;-69
2023/01/13 06:02:45;;;;;;;2.47;1.20;;;;;;;10.80;82.93;99620.34;5090728;28;20177;-69
2023/01/13 06:05:10;;;;;;;0.47;0.47;;;;;;;10.80;82.69;99620.34;5091032;28;20066;-71
2023/01/13 06:07:36;;;;;;;2.72;1.10;;;;;;;10.80;82.49;99612.34;5091185;28;20036;-69
2023/01/13 06:10:01;;;;;;;0.85;0.50;;;;;;;10.81;82.52;99611.34;5092212;28;20469;-69
2023/01/13 06:12:26;;;;;;;0.60;0.30;;;;;;;10.82;82.49;99605.84;5091352;28;20037;-70
2023/01/13 06:14:52;;;;;;;0.60;0.60;;;;;;;10.81;82.06;99614.00;5089034;28;20039;-70
2023/01/13 06:17:17;;;;;;;0.50;0.50;;;;;;;10.77;82.90;99610.91;5088342;28;20511;-69
2023/01/13 06:19:43;;;;;;;1.38;0.40;;;;;;;10.76;83.34;99603.13;5088714;28;20040;-70
2023/01/13 06:22:16;;;;;;;0.98;0.35;;;;;;;10.81;82.76;99611.34;5088882;28;20079;-69
2023/01/13 06:24:44;;;;;;;0.40;0.40;;;;;;;10.80;83.79;99615.03;5089139;28;20040;-68
2023/01/13 06:27:10;;;;;;;0.30;0.30;;;;;;;10.73;85.84;99616.78;5088494;28;20044;-69
2023/01/13 06:29:36;;;;;;;0.70;0.30;;;;;;;10.69;85.97;99631.50;5088621;28;20066;-69
2023/01/13 06:32:06;;;;;;;0.73;0.40;;;;;;;10.68;86.57;99619.19;5087166;28;20037;-69
2023/01/13 06:34:34;;;;;;;0.63;0.40;;;;;;;10.65;85.85;99623.06;5073935;28;20036;-71
2023/01/13 06:37:01;;;;;;;;;;;;;;;10.61;86.18;99624.44;5076168;28;20034;-71
2023/01/13 06:39:30;;;;;;;0.98;0.50;;;;;;;10.58;86.24;99623.00;5075918;28;19935;-68
2023/01/13 06:44:40;;;;;;;0.30;0.30;;;;;;;10.62;85.72;99622.59;5075113;28;20040;-69
2023/01/13 06:47:06;;;;;;;0.32;0.32;;;;;;;10.63;85.47;99622.44;5075286;28;20098;-68
2023/01/13 06:49:32;;;;;;;1.35;0.30;;;;;;;10.68;85.30;99619.19;5075802;28;20127;-69
2023/01/13 06:51:57;;;;;;;0.60;0.40;;;;;;;10.64;85.39;99625.94;5075100;28;20033;-71
2023/01/13 06:54:23;;;;;;;1.88;0.47;;;;;;;10.62;86.49;99633.25;5074859;28;20048;-70
2023/01/13 06:56:48;;;;;;;1.05;0.55;;;;;;;10.67;86.11;99637.03;5075778;28;20116;-69
2023/01/13 06:59:13;;;;;;;1.95;0.43;;;;;;;10.58;86.82;99632.84;5074942;28;20037;-70
2023/01/13 07:01:39;;;;;;;0.25;0.25;;;;;;;10.58;87.42;99635.50;5074318;28;20032;-69
2023/01/13 07:04:04;;;;;;;1.50;0.80;;;;;;;10.53;87.29;99633.38;5073812;28;20124;-68
2023/01/13 07:06:30;;;;;;;0.30;0.30;;;;;;;10.55;87.01;99633.19;5075729;28;20040;-70
2023/01/13 07:08:55;;;;;;;0.52;0.40;;;;;;;10.55;87.29;99633.19;5077130;28;20048;-70
2023/01/13 07:11:20;;;;;;;3.40;0.40;;;;;;;10.50;86.99;99638.28;5077661;28;20037;-70
2023/01/13 07:16:30;;;;;;;0.20;0.20;;;;;;;10.56;86.41;99654.34;5074453;28;20487;-70
2023/01/13 07:18:55;;;;;;;0.28;0.25;;;;;;;10.69;85.59;99644.81;5073752;28;20083;-70
2023/01/13 07:21:21;;;;;;;0.85;0.30;;;;;;;10.68;85.19;99651.16;5073462;28;20036;-70
2023/01/13 07:23:47;;;;;;;0.35;0.35;;;;;;;10.66;85.23;99663.84;5073285;28;20050;-68
2023/01/13 07:26:13;;;;;;;0.30;0.28;;;;;;;10.70;84.93;99668.63;5073046;28;20044;-69
2023/01/13 07:28:39;;;;;;;0.30;0.30;;;;;;;10.71;87.10;99686.25;5072305;28;20043;-69
2023/01/13 07:31:12;;;;;;;2.15;0.47;;;;;;;10.65;90.73;99691.50;5073137;28;20072;-69
2023/01/13 07:33:38;;;;;;;0.60;0.30;;;;;;;10.59;93.52;99701.88;5073255;28;20043;-70
2023/01/13 07:36:04;;;;;;;0.80;0.43;;;;;;;10.33;97.28;99722.84;5073058;28;20032;-70
2023/01/13 07:38:31;;;;;;;0.20;0.20;;;;;;;10.28;98.81;99725.22;5072839;28;20032;-70
2023/01/13 07:40:56;;;;;;;0.40;0.40;;;;;;;10.06;100.00;99726.94;5072851;28;20040;-69
2023/01/13 07:43:31;;;;;;;0.47;0.32;;;;;;;9.92;100.00;99739.22;5072853;28;20147;-70
2023/01/13 07:45:58;;;;;;;0.55;0.30;;;;;;;9.89;100.00;99760.03;5072065;28;20117;-70
2023/01/13 07:48:24;;;;;;;0.50;0.40;;;;;;;9.85;100.00;99780.03;5072495;28;20036;-70
2023/01/13 07:50:49;;;;;;;0.30;0.30;;;;;;;9.77;100.00;99780.91;5072659;28;20043;-69
2023/01/13 07:53:14;;;;;;;0.80;0.50;;;;;;;9.67;100.00;99775.03;5072734;28;20400;-64
2023/01/13 07:55:41;;;;;;;2.90;0.50;;;;;;;9.56;100.00;99786.91;5072669;28;20041;-64
2023/01/13 07:58:08;;;;;;;1.20;0.47;;;;;;;9.48;100.00;99778.97;5072651;28;20421;-64
2023/01/13 08:00:34;;;;;;;0.40;0.40;;;;;;;9.46;100.00;99794.28;5072797;28;20041;-64
2023/01/13 08:02:59;;;;;;;0.88;0.55;;;;;;;9.15;100.00;99808.44;5072721;28;20044;-64
2023/01/13 08:05:25;;;;;;;0.63;0.45;;;;;;;9.17;100.00;99797.63;5072473;28;20037;-64
2023/01/13 08:07:50;;;;;;;1.63;0.63;;;;;;;9.09;100.00;99809.13;5072157;28;20631;-69
2023/01/13 08:10:16;;;;;;;0.40;0.40;;;;;;;9.10;100.00;99807.28;5072240;28;20051;-69
2023/01/13 08:15:25;;;;;;;0.82;0.50;;;;;;;8.86;100.00;99827.66;5072200;28;20485;-69
2023/01/13 08:17:50;;;;;;;0.45;0.40;;;;;;;8.82;100.00;99825.53;5071972;28;20051;-69
2023/01/13 08:20:16;;;;;;;0.30;0.30;;;;;;;8.69;100.00;99823.41;5072046;28;20040;-69
2023/01/13 08:22:41;;;;;;;0.77;0.63;;;;;;;8.64;100.00;99828.41;5072153;28;20032;-69
2023/01/13 08:25:07;;;;;;;2.45;0.50;;;;;;;8.62;100.00;99838.38;5072325;28;20051;-69
2023/01/13 08:27:33;;;;;;;0.40;0.40;;;;;;;8.60;100.00;99848.31;5072283;28;20048;-69
2023/01/13 08:29:58;;;;;;;0.80;0.40;;;;;;;8.59;100.00;99855.47;5071990;28;20032;-69
2023/01/13 08:32:24;;;;;;;0.40;0.40;;;;;;;8.58;100.00;99856.47;5071865;28;20041;-70
2023/01/13 08:34:49;;;;;;;0.40;0.40;;;;;;;8.59;100.00;99871.38;5071941;28;20109;-70
2023/01/13 08:37:14;;;;;;;1.60;0.50;;;;;;;8.56;100.00;99876.22;5071557;28;20043;-69
2023/01/13 08:39:40;;;;;;;2.17;0.45;;;;;;;8.59;100.00;99870.56;5071884;28;20036;-69
2023/01/13 08:42:05;;;;;;;3.40;0.50;;;;;;;8.61;100.00;99866.75;5071782;28;20043;-69
2023/01/13 08:44:31;;;;;;;0.65;0.40;;;;;;;8.62;100.00;99876.38;5071978;28;20119;-69
2023/01/13 08:46:57;;;;;;;0.68;0.63;;;;;;;8.58;100.00;99874.22;5071736;28;20044;-69
2023/01/13 08:49:23;;;;;;;1.00;0.68;;;;;;;8.61;100.00;99879.22;5071716;28;20036;-70
2023/01/13 08:51:49;;;;;;;2.63;0.80;;;;;;;8.61;100.00;99888.00;5070597;28;20044;-68
2023/01/13 08:54:16;;;;;;;3.40;1.00;;;;;;;8.59;100.00;99891.81;5071648;28;20036;-69
2023/01/13 08:56:42;;;;;;;0.40;0.40;;;;;;;8.61;100.00;99889.81;5071420;28;20047;-68
2023/01/13 08:59:11;;;;;;;1.25;0.80;;;;;;;8.62;100.00;99881.69;5071301;28;20036;-68
2023/01/13 09:01:38;;;;;;;0.75;0.70;;;;;;;8.59;100.00;99891.81;5071574;28;20469;-69
2023/01/13 09:04:05;;;;;;;2.75;1.02;;;;;;;8.58;100.00;99892.81;5071570;28;20516;-69
2023/01/13 09:06:30;;;;;;;4.45;0.70;;;;;;;8.56;100.00;99887.66;5071596;28;20036;-69
2023/01/13 09:08:56;;;;;;;3.22;0.88;;;;;;;8.56;100.00;99892.16;5071529;28;20126;-68
2023/01/13 09:14:22;;;;;;;1.88;0.93;;;;;;;8.62;100.00;99902.09;5071577;28;20033;-69
2023/01/13 09:16:47;;;;;;;1.48;0.88;;;;;;;8.60;100.00;99898.75;5071378;28;20106;-68
2023/01/13 09:19:13;;;;;;;3.53;0.90;;;;;;;8.59;100.00;99915.69;5071020;28;20112;-69
2023/01/13 09:21:39;;;;;;;4.95;0.90;;;;;;;8.64;100.00;99913.38;5071361;28;20063;-68
2023/01/13 09:24:04;;;;;;;3.05;0.90;;;;;;;8.71;100.00;99922.31;5071637;28;20528;-68
2023/01/13 09:26:30;;;;;;;0.68;0.55;;;;;;;8.76;100.00;99917.34;5071288;28;20032;-69
2023/01/13 09:28:55;;;;;;;1.60;0.80;;;;;;;8.82;100.00;99913.19;5071062;28;20508;-68
2023/01/13 09:31:20;;;;;;;0.70;0.60;;;;;;;8.86;100.00;99912.66;5071375;28;20040;-69
2023/01/13 09:36:29;;;;;;;0.93;0.50;;;;;;;8.95;100.00;99918.78;5071304;28;20477;-69
2023/01/13 09:38:55;;;;;;;0.68;0.68;;;;;;;9.00;100.00;99926.22;5070725;28;20086;-68
2023/01/13 09:44:21;;;;;;;1.77;0.82;;;;;;;9.01;100.00;99935.88;5070906;28;20455;-68
2023/01/13 09:46:52;;;;;;;0.47;0.43;;;;;;;9.10;100.00;99940.97;5071174;28;20047;-68
2023/01/13 09:49:43;;;;;;;5.03;0.82;;;;;;;9.08;100.00;99939.50;5070570;28;20045;-69
2023/01/13 09:52:15;;;;;;;0.30;0.30;;;;;;;9.03;100.00;99934.69;5068414;28;20469;-68
2023/01/13 09:54:43;;;;;;;4.25;0.60;;;;;;;9.04;100.00;99935.53;5071147;28;20045;-69
2023/01/13 09:57:13;;;;;;;1.63;0.93;;;;;;;9.07;100.00;99944.00;5070766;28;20040;-69
2023/01/13 09:59:39;;;;;;;5.57;0.70;;;;;;;9.15;100.00;99938.66;5071277;28;20036;-68
2023/01/13 10:02:40;;;;;;;0.80;0.60;;;;;;;9.33;100.00;99941.06;5071169;28;20090;-68
2023/01/13 10:05:16;;;;;;;1.83;0.85;;;;;;;9.44;100.00;99940.66;5065484;28;20036;-68
2023/01/13 10:07:49;;;;;;;0.77;0.65;;;;;;;9.43;100.00;99935.53;5071814;28;20398;-68
2023/01/13 10:10:24;;;;;;;1.60;0.80;;;;;;;9.44;100.00;99940.66;5074776;28;20043;-68
2023/01/13 10:15:33;;;;;;;0.95;0.80;;;;;;;9.27;100.00;99933.78;5074749;28;20509;-68
2023/01/13 10:18:20;;;;;;;1.48;0.90;;;;;;;9.21;100.00;99937.97;5074293;28;20071;-68
2023/01/13 10:20:55;;;;;;;2.13;0.98;;;;;;;9.27;100.00;99939.09;5074369;28;20033;-68
2023/01/13 10:23:42;;;;;;;3.40;0.93;;;;;;;9.25;100.00;99952.53;5074430;28;20343;-68
2023/01/13 10:26:16;;;;;;;0.93;0.70;;;;;;;9.26;100.00;99956.06;5074358;28;20060;-68
2023/01/13 10:28:50;;;;;;;2.60;0.50;;;;;;;9.23;100.00;99959.88;5074175;28;20486;-68
2023/01/13 10:31:18;;;;;;;0.82;0.55;;;;;;;9.26;100.00;99958.72;5074295;28;20051;-68
2023/01/13 10:33:43;;;;;;;0.63;0.63;;;;;;;9.25;100.00;99957.03;5074312;28;20504;-69
2023/01/13 10:36:20;;;;;;;7.15;1.23;;;;;;;9.24;100.00;99960.69;5074090;28;20040;-69
2023/01/13 10:38:47;;;;;;;0.70;0.50;;;;;;;9.15;100.00;99962.56;5073978;28;20043;-68
2023/01/13 10:41:19;;;;;;;3.25;0.73;;;;;;;9.20;100.00;99970.03;5074038;28;20420;-68
2023/01/13 10:43:50;;;;;;;3.55;0.60;;;;;;;9.24;100.00;99960.69;5074101;28;20036;-69
2023/01/13 10:46:16;;;;;;;0.45;0.32;;;;;;;9.23;100.00;99964.34;5073999;28;20040;-68
2023/01/13 10:48:43;;;;;;;2.05;0.65;;;;;;;9.35;100.00;99960.31;5073688;28;20446;-69
2023/01/13 10:51:09;;;;;;;3.65;0.70;;;;;;;9.40;100.00;99950.00;5074091;28;20554;-69
2023/01/13 10:54:10;;;;;;;1.55;0.68;;;;;;;9.49;100.00;99948.97;5073937;28;20067;-69
2023/01/13 10:56:36;;;;;;;3.95;0.73;;;;;;;9.61;100.00;99960.06;5058045;28;20598;-68
2023/01/13 10:59:23;;;;;;;2.50;0.63;;;;;;;9.71;100.00;99968.63;5073469;28;20040;-69
2023/01/13 11:02:01;;;;;;;1.52;0.93;;;;;;;9.78;100.00;99952.81;5073944;28;20039;-69
2023/01/13 11:04:37;;;;;;;0.93;0.63;;;;;;;10.00;100.00;99956.50;5073718;28;20047;-69
2023/01/13 11:07:05;;;;;;;1.10;1.00;;;;;;;10.29;100.00;99964.63;5073514;28;20040;-68
2023/01/13 11:09:31;;;;;;;3.95;0.95;;;;;;;10.30;98.71;99963.66;5073388;28;20502;-68
2023/01/13 11:11:58;;;;;;;1.17;0.70;;;;;;;10.39;97.93;99972.38;5073509;28;20032;-69
2023/01/13 11:14:38;;;;;;;4.95;1.00;;;;;;;10.42;98.43;99966.69;5073544;28;20037;-69
2023/01/13 11:17:39;;;;;;;7.30;1.40;;;;;;;10.22;98.79;99965.50;5073192;28;20041;-68
2023/01/13 11:20:10;;;;;;;3.15;1.00;;;;;;;10.18;96.68;99986.31;5073228;28;20046;-68
2023/01/13 11:22:39;;;;;;;5.43;1.05;;;;;;;10.07;94.90;99979.56;5073265;28;20044;-69
2023/01/13 11:25:12;;;;;;;6.38;1.02;;;;;;;10.15;94.61;99985.84;5073524;28;20430;-69
2023/01/13 11:27:52;;;;;;;3.22;1.13;;;;;;;10.12;93.54;99980.88;5071643;28;20029;-69
2023/01/13 11:30:45;;;;;;;4.10;0.90;;;;;;;10.00;95.35;99986.59;5073131;28;20050;-69
2023/01/13 11:33:26;;;;;;;6.82;3.10;;;;;;;9.96;96.22;99977.31;5073524;28;20044;-69
2023/01/13 11:36:01;;;;;;;1.80;1.10;;;;;;;9.88;97.41;99973.88;5073030;28;20043;-70
2023/01/13 11:38:50;;;;;;;3.15;0.98;;;;;;;9.86;99.92;99982.03;5072707;28;20071;-68
2023/01/13 11:41:27;;;;;;;2.83;0.93;;;;;;;9.75;100.00;99995.72;5067159;28;20052;-69
2023/01/13 11:44:05;;;;;;;4.30;1.27;;;;;;;9.75;100.00;99987.72;5072991;28;20109;-69
2023/01/13 11:46:31;;;;;;;1.00;0.70;;;;;;;9.67;100.00;99998.41;5072561;28;20754;-69
2023/01/13 11:48:58;;;;;;;6.18;1.00;;;;;;;9.44;100.00;100014.28;5072437;28;20040;-68
2023/01/13 11:51:48;;;;;;;6.03;1.27;;;;;;;9.10;100.00;100023.34;5072706;28;20060;-70
2023/01/13 11:54:55;;;;;;;1.40;0.88;;;;;;;8.83;100.00;100016.59;5072766;28;20056;-70
2023/01/13 11:57:29;;;;;;;1.23;0.68;;;;;;;8.67;100.00;100011.25;5037760;28;20098;-69
2023/01/13 12:00:16;;;;;;;2.85;1.00;;;;;;;8.49;100.00;100037.19;5072726;28;20039;-69
2023/01/13 12:02:56;;;;;;;5.80;1.03;;;;;;;8.34;100.00;100032.44;5072797;28;20035;-68
2023/01/13 12:06:20;;;;;;;2.10;0.75;;;;;;;8.19;100.00;100010.22;5072474;28;20032;-69
2023/01/13 12:09:13;;;;;;;1.80;0.68;;;;;;;8.16;100.00;99999.94;5024110;28;20055;-70
2023/01/13 12:12:18;;;;;;;1.33;0.70;;;;;;;8.12;100.00;100014.53;5072358;28;20043;-69
2023/01/13 12:15:07;;;;;;;1.95;0.75;;;;;;;8.09;100.00;100018.34;5072270;28;20032;-68
2023/01/13 12:18:05;;;;;;;2.85;0.75;;;;;;;8.09;99.01;100028.94;5071892;28;20040;-70
2023/01/13 12:20:49;;;;;;;1.83;0.60;;;;;;;8.22;99.55;100023.19;5071991;28;20036;-70
2023/01/13 12:23:36;;;;;;;4.50;0.77;;;;;;;8.26;98.78;100021.00;5072128;28;20051;-69
2023/01/13 12:26:14;;;;;;;1.23;0.93;;;;;;;8.33;98.42;100020.19;5072082;28;20047;-69
2023/01/13 12:28:47;;;;;;;3.95;0.90;;;;;;;8.37;98.97;100024.22;5071829;28;20043;-69
2023/01/13 12:31:17;;;;;;;3.30;1.17;;;;;;;8.45;99.10;100023.38;5071401;28;20128;-69
2023/01/13 12:34:04;;;;;;;1.23;0.85;;;;;;;8.63;97.40;100032.03;5072169;28;20461;-68
2023/01/13 12:36:57;;;;;;;3.33;0.73;;;;;;;8.66;98.73;100030.84;5071903;28;20079;-69
2023/01/13 12:39:42;;;;;;;1.65;0.70;;;;;;;8.73;97.63;100042.47;5071647;28;20032;-68
2023/01/13 12:45:10;;;;;;;2.10;1.02;;;;;;;8.70;100.00;100019.75;5071857;28;20025;-69
2023/01/13 12:47:38;;;;;;;6.70;1.20;;;;;;;8.74;100.00;100014.94;5071464;28;20501;-69
2023/01/13 12:50:24;;;;;;;;;;;;;;;8.78;100.00;100005.63;5072215;28;20036;-69
2023/01/13 12:52:56;;;;;;;15.13;1.40;;;;;;;8.59;100.00;100004.13;5071680;28;20397;-68
2023/01/13 12:55:23;;;;;;;2.90;0.93;;;;;;;8.75;100.00;100011.28;5071579;28;20052;-69
2023/01/13 12:58:04;;;;;;;3.55;1.35;;;;;;;8.92;100.00;100014.75;5071281;28;20036;-69
2023/01/13 13:00:39;;;;;;;2.40;1.17;;;;;;;8.97;100.00;100023.03;5071537;28;20036;-70
2023/01/13 13:03:10;;;;;;;1.50;0.68;;;;;;;8.91;100.00;100031.69;5071887;28;20052;-69
2023/01/13 13:05:57;;;;;;;3.70;1.25;;;;;;;8.79;100.00;100033.84;5071502;28;20040;-69
2023/01/13 13:09:01;;;;;;;0.82;0.70;;;;;;;8.26;100.00;100035.09;5071120;28;20032;-69
2023/01/13 13:14:38;;;;;;;1.48;0.45;;;;;;;7.70;100.00;100041.91;5070302;28;20044;-65
2023/01/13 13:17:24;;;;;;;2.75;1.02;;;;;;;7.49;100.00;100028.22;5071442;28;20036;-70
2023/01/13 13:19:50;;;;;;;1.65;0.70;;;;;;;7.56;100.00;100016.84;5071271;28;20036;-70
2023/01/13 13:22:18;;;;;;;1.45;0.75;;;;;;;7.62;100.00;100031.25;5070632;28;20040;-70
2023/01/13 13:24:50;;;;;;;;;;;;;;;7.73;100.00;100032.81;5068817;28;20548;-71
2023/01/13 13:27:39;;;;;;;0.40;0.40;;;;;;;7.77;100.00;100029.69;5054409;28;19923;-71
2023/01/13 13:30:13;;;;;;;2.22;1.13;;;;;;;7.79;100.00;100030.34;5059219;28;20033;-70
2023/01/13 13:33:09;;;;;;;0.77;0.63;;;;;;;7.85;100.00;100035.00;5059786;28;20061;-70
2023/01/13 13:36:01;;;;;;;3.30;0.98;;;;;;;8.12;100.00;100033.09;5061747;28;20036;-70
2023/01/13 13:47:36;;;;;;;7.47;0.90;;;;;;;8.84;95.37;100059.91;5071655;28;20429;-70
2023/01/13 13:50:13;;;;;;;1.33;0.60;;;;;;;8.80;95.10;100074.50;5063627;28;20044;-69
2023/01/13 13:52:44;;;;;;;2.05;0.80;;;;;;;8.80;95.66;100070.06;5064398;28;20088;-68
2023/01/13 13:55:17;;;;;;;2.28;0.75;;;;;;;9.02;93.04;100063.22;5064395;28;20036;-70
2023/01/13 13:57:49;;;;;;;4.22;0.40;;;;;;;8.92;93.25;100076.66;5063405;28;20502;-69
2023/01/13 14:00:16;;;;;;;4.28;0.85;;;;;;;8.83;93.35;100085.63;5069264;28;20528;-70
2023/01/13 14:02:52;;;;;;;0.83;0.50;;;;;;;8.83;93.48;100082.16;5070744;28;20033;-69
2023/01/13 14:05:23;;;;;;;6.10;1.02;;;;;;;8.70;94.30;100093.28;5054765;28;20067;-71
2023/01/13 14:07:51;;;;;;;0.75;0.50;;;;;;;8.56;95.43;100097.41;5054547;28;20037;-69
2023/01/13 14:10:20;;;;;;;2.83;0.73;;;;;;;8.55;96.80;100097.56;5054765;28;20040;-70
2023/01/13 14:12:46;;;;;;;4.05;0.85;;;;;;;8.68;96.72;100093.44;5054675;28;20044;-69
2023/01/13 14:15:32;;;;;;;1.95;0.77;;;;;;;8.84;96.47;100089.94;5054874;28;20041;-70
2023/01/13 14:18:00;;;;;;;3.50;1.13;;;;;;;8.95;95.19;100100.25;5054523;28;20098;-70
2023/01/13 14:20:27;;;;;;;2.92;0.70;;;;;;;8.89;94.14;100092.13;5054476;28;20045;-71
2023/01/13 14:22:54;;;;;;;0.88;0.77;;;;;;;8.98;94.15;100094.59;5054691;28;20040;-70
2023/01/13 14:25:34;;;;;;;2.00;0.68;;;;;;;9.00;94.44;100093.59;5054473;28;20064;-70
2023/01/13 14:28:12;;;;;;;3.85;0.85;;;;;;;9.05;91.48;100105.38;5054263;28;20044;-70
2023/01/13 14:30:38;;;;;;;1.40;0.80;;;;;;;9.03;90.44;100101.25;5057831;28;20033;-70
2023/01/13 14:33:04;;;;;;;1.08;0.57;;;;;;;8.92;91.09;100094.44;5054023;28;20048;-70
2023/01/13 14:35:30;;;;;;;1.63;0.70;;;;;;;8.94;91.58;100093.28;5054850;28;20073;-71
2023/01/13 14:38:03;;;;;;;3.83;0.52;;;;;;;8.91;90.56;100093.59;5054137;28;20041;-70
2023/01/13 14:40:31;;;;;;;7.20;1.40;;;;;;;8.92;90.40;100095.25;5054376;28;20094;-70
2023/01/13 14:43:01;;;;;;;3.08;0.85;;;;;;;8.86;90.59;100095.09;5054266;28;20060;-71
2023/01/13 14:45:26;;;;;;;6.20;1.08;;;;;;;8.82;90.09;100096.44;5053964;28;20045;-71
2023/01/13 14:47:53;;;;;;;0.57;0.57;;;;;;;8.76;89.49;100105.06;5053886;28;20036;-70
2023/01/13 14:50:27;;;;;;;2.30;0.80;;;;;;;8.71;89.74;100113.50;5054015;28;20033;-70
2023/01/13 14:52:54;;;;;;;2.63;1.20;;;;;;;8.71;86.76;100118.81;5053963;28;20040;-70
2023/01/13 14:55:27;;;;;;;11.38;0.90;;;;;;;8.78;86.10;100114.50;5053398;28;20048;-70
2023/01/13 14:58:12;;;;;;;4.38;0.77;;;;;;;8.74;85.52;100126.47;5053496;28;20466;-70
2023/01/13 15:00:38;;;;;;;1.65;0.82;;;;;;;8.69;87.38;100126.97;5053721;28;20029;-70
2023/01/13 15:03:06;;;;;;;4.20;0.90;;;;;;;8.63;86.68;100132.09;5053659;28;20401;-69
2023/01/13 15:05:37;;;;;;;2.65;0.90;;;;;;;8.54;88.83;100156.94;5053506;28;20041;-69
2023/01/13 15:08:03;;;;;;;3.05;0.85;;;;;;;8.51;89.34;100146.66;5053369;28;20045;-70
2023/01/13 15:10:32;;;;;;;2.47;0.90;;;;;;;8.49;90.72;100149.50;5053553;28;20064;-70
2023/01/13 15:13:00;;;;;;;2.50;0.80;;;;;;;8.42;90.64;100167.91;5053455;28;20127;-68
2023/01/13 15:15:33;;;;;;;3.15;1.10;;;;;;;8.42;91.05;100162.59;5053353;28;20045;-70
2023/01/13 15:18:11;;;;;;;2.95;0.80;;;;;;;8.48;90.59;100171.72;5053156;28;20401;-69
2023/01/13 15:20:38;;;;;;;0.98;0.82;;;;;;;8.45;90.48;100171.22;5053283;28;20037;-69
2023/01/13 15:23:03;;;;;;;1.15;0.40;;;;;;;8.56;87.26;100162.94;5052227;28;20033;-69
2023/01/13 15:25:42;;;;;;;0.82;0.63;;;;;;;8.51;87.55;100165.25;5053284;28;20386;-70
2023/01/13 15:28:16;;;;;;;4.90;0.68;;;;;;;8.50;87.37;100169.75;5053001;28;20045;-69
2023/01/13 15:30:42;;;;;;;1.90;0.63;;;;;;;8.46;86.99;100173.69;5053350;28;20059;-69
2023/01/13 15:33:10;;;;;;;4.28;0.52;;;;;;;8.40;86.33;100183.13;5053272;28;20644;-68
2023/01/13 15:35:38;;;;;;;0.45;0.30;;;;;;;8.35;85.97;100187.25;5053164;28;20060;-69
2023/01/13 15:38:09;;;;;;;1.75;0.95;;;;;;;8.31;86.06;100188.56;5052897;28;20089;-69
2023/01/13 15:40:34;;;;;;;2.47;0.50;;;;;;;8.26;87.04;100199.63;5053073;28;20029;-67
2023/01/13 15:48:31;;;;;;;2.47;0.75;;;;;;;8.01;90.30;100205.81;5052464;28;20536;-70
2023/01/13 15:50:57;;;;;;;;;;;;;;;7.99;90.73;100218.41;5059732;28;20025;-69
2023/01/13 15:53:22;;;;;;;1.95;0.55;;;;;;;7.87;92.59;100210.72;5072311;28;19923;-69
2023/01/13 15:55:54;;;;;;;2.33;0.40;;;;;;;7.89;92.44;100216.72;5072559;28;20082;-69
2023/01/13 15:58:24;;;;;;;2.60;0.60;;;;;;;7.83;93.05;100214.69;5070938;28;20045;-69
2023/01/13 16:00:50;;;;;;;3.05;0.63;;;;;;;7.75;93.93;100225.22;5066365;28;20418;-72
2023/01/13 16:03:15;;;;;;;5.07;0.93;;;;;;;7.74;93.97;100230.69;5050142;28;20060;-68
2023/01/13 16:05:42;;;;;;;2.78;0.82;;;;;;;7.65;94.90;100237.75;5051881;28;20143;-71
2023/01/13 16:08:16;;;;;;;1.95;0.73;;;;;;;7.60;95.81;100238.19;5052665;28;20033;-68
2023/01/13 16:10:43;;;;;;;1.95;0.52;;;;;;;7.59;96.08;100241.00;5052667;28;20490;-70
2023/01/13 16:13:10;;;;;;;2.17;0.93;;;;;;;7.55;96.58;100239.66;5050787;28;20063;-70
2023/01/13 16:15:37;;;;;;;1.65;0.98;;;;;;;7.51;96.60;100246.25;5051985;28;20382;-69
2023/01/13 16:18:03;;;;;;;6.30;0.77;;;;;;;7.52;97.09;100239.97;5051741;28;20048;-70
2023/01/13 16:20:29;;;;;;;1.95;0.70;;;;;;;7.41;97.49;100246.34;5052015;28;20122;-70
2023/01/13 16:22:55;;;;;;;6.30;0.60;;;;;;;7.42;97.07;100253.28;5052384;28;20123;-69
2023/01/13 16:25:23;;;;;;;3.60;1.27;;;;;;;7.41;97.84;100258.75;5052503;28;20037;-68
2023/01/13 16:27:49;;;;;;;6.13;0.63;;;;;;;7.41;98.14;100269.34;5051774;28;20048;-70
2023/01/13 16:30:24;;;;;;;0.47;0.45;;;;;;;7.42;97.77;100261.25;5051840;28;20051;-69
2023/01/13 16:32:50;;;;;;;0.88;0.88;;;;;;;7.53;96.12;100254.88;5051920;28;20047;-70
2023/01/13 16:35:17;;;;;;;2.60;0.70;;;;;;;7.61;95.59;100263.72;5049512;28;20048;-68
2023/01/13 16:37:46;;;;;;;4.53;1.15;;;;;;;7.69;94.25;100268.25;5032073;28;20038;-69
2023/01/13 16:40:33;;;;;;;1.73;1.23;;;;;;;7.80;93.26;100277.78;5042418;28;20087;-68
2023/01/13 16:43:00;;;;;;;;;;;;;;;7.82;93.08;100286.41;5052055;28;20033;-70
2023/01/13 16:45:26;;;;;;;4.32;0.75;;;;;;;7.90;92.26;100286.50;5052139;28;19990;-68
2023/01/13 16:47:52;;;;;;;4.53;0.90;;;;;;;7.97;92.10;100294.66;5033586;28;20028;-69
2023/01/13 16:50:40;;;;;;;4.57;1.48;;;;;;;8.05;90.90;100287.59;5046171;28;20035;-69
2023/01/13 16:53:08;;;;;;;2.25;0.80;;;;;;;8.10;89.19;100303.03;5044301;28;20090;-70
2023/01/13 16:55:34;;;;;;;2.80;0.80;;;;;;;8.16;87.88;100294.47;5051405;28;20044;-70
2023/01/13 16:57:59;;;;;;;1.77;0.88;;;;;;;8.24;86.58;100293.69;5054331;28;20033;-69
2023/01/13 17:00:25;;;;;;;1.10;0.70;;;;;;;8.25;86.94;100290.84;5052462;28;20128;-68
2023/01/13 17:02:50;;;;;;;2.10;0.55;;;;;;;8.26;86.70;100302.31;5050957;28;20032;-68
2023/01/13 17:05:16;;;;;;;1.67;0.60;;;;;;;8.24;86.76;100289.19;5052004;28;20032;-68
2023/01/13 17:07:44;;;;;;;0.77;0.63;;;;;;;8.36;85.39;100321.66;5052112;28;20409;-69
2023/01/13 17:10:19;;;;;;;1.88;0.75;;;;;;;8.41;84.05;100304.28;5051536;28;20040;-69
2023/01/13 17:12:45;;;;;;;4.47;1.00;;;;;;;8.49;83.29;100305.31;5050201;28;20037;-68
2023/01/13 17:15:15;;;;;;;0.63;0.50;;;;;;;8.52;83.12;100305.78;5051381;28;20056;-69
2023/01/13 17:17:42;;;;;;;9.02;1.33;;;;;;;8.52;83.42;100305.78;5050778;28;20040;-68
2023/01/13 17:20:12;;;;;;;8.50;1.40;;;;;;;8.55;83.32;100300.19;5051580;28;20394;-68
2023/01/13 17:22:37;;;;;;;2.55;0.80;;;;;;;8.54;82.62;100306.50;5051433;28;20032;-69
2023/01/13 17:25:03;;;;;;;1.27;0.60;;;;;;;8.55;83.00;100320.59;5051531;28;20486;-69
2023/01/13 17:27:29;;;;;;;3.42;1.10;;;;;;;8.52;83.00;100326.22;5051073;28;20044;-69
2023/01/13 17:29:54;;;;;;;1.10;0.60;;;;;;;8.47;83.00;100331.16;5051500;28;20048;-69
2023/01/13 17:32:21;;;;;;;1.65;0.77;;;;;;;8.50;82.47;100334.34;5051863;28;20041;-68
2023/01/13 17:34:47;;;;;;;3.78;0.98;;;;;;;8.43;83.39;100342.09;5051376;28;20435;-69
2023/01/13 17:37:13;;;;;;;3.35;0.40;;;;;;;8.37;83.73;100348.03;5050969;28;20029;-69
2023/01/13 17:39:43;;;;;;;3.83;0.80;;;;;;;8.39;83.66;100350.53;5051498;28;20387;-68
2023/01/13 17:42:11;;;;;;;0.52;0.50;;;;;;;8.30;84.56;100354.94;5051385;28;20051;-68
2023/01/13 17:44:37;;;;;;;1.55;0.60;;;;;;;8.27;85.42;100357.03;5051325;28;20037;-68
2023/01/13 17:47:03;;;;;;;2.33;0.68;;;;;;;8.19;85.93;100357.81;5051159;28;20090;-68
2023/01/13 17:49:29;;;;;;;1.27;0.60;;;;;;;8.11;86.75;100381.66;5051046;28;20040;-68
2023/01/13 17:51:54;;;;;;;2.47;0.60;;;;;;;8.05;86.94;100374.31;5051093;28;20457;-69
2023/01/13 17:54:20;;;;;;;1.63;0.63;;;;;;;7.97;87.58;100371.59;5051300;28;20032;-69
2023/01/13 17:56:46;;;;;;;1.75;0.60;;;;;;;7.91;88.08;100390.78;5051091;28;20071;-69
2023/01/13 17:59:13;;;;;;;4.38;0.93;;;;;;;7.85;87.71;100386.91;5051049;28;20041;-69